الصفحة الرئيسية
METAR-TAF:

METAR-TAF

مطار :

دبلن, جزيرة أيرلندا

مطار دبلن الدولي

دائرة عرض: 53-26N, خط طول: 006-15W, ارتفاع: 68 متر

مراقبة الطقس الحالي

تاريخ ووقت الإصدار 18 دقيقة قبل الساعة 08:00UTC
ريح 9 عقدة من الجنوب/الجنوب الشرقي
درجة الحرارة 5°درجة مئوية
الرطوبة 87%
ضغط 1023 hPa
الرؤية 10 كم أو أكثر
غيوم قليلة على ارتفاع 1800 قدم
غيوم مفككة على ارتفاع 4500 قدم

METAR: EIDW 220800Z 15009KT 9999 FEW018 BKN045 05/03 Q1023 NOSIG

زمن: 08:18 (08:18 UTC)

توقعات

تاريخ ووقت الإصدار 3ساعات و 18 دقيقة قبل الساعة 05:00UTC
التوقعات صالحة من22 الساعة 06 UTC إلى 23 الساعة 06 UTC
ريح 5 عقدة من الجنوب/الجنوب الشرقي
الرؤية 10 كم أو أكثر
غيوم قليلة على ارتفاع 2000 قدم
غيوم متفرقة على ارتفاع 3500 قدم
أصبح
من 22 الساعة 10 UTC إلى 22 الساعة 13 UTC
ريح 12 عقدة من الجنوب/الجنوب الشرقي

TAF: EIDW 220500Z 2206/2306 15005KT 9999 FEW020 SCT035 BECMG 2210/2213 15012KT

أرصاد الطقس والتوقعات من أكثر من 4000 مطار (تقارير الطقس للمطار METAR والتنبؤ بالطقس بالمطارTAF).

المحطات المتاحة هي النقط الصفراء والحمراء على الخريطة.

حرك المؤشر فوق النقطة لمعرفة اسم المحطة.

ثم انقر لمعرفة أرصاد وتوقعات الطقس.

لتغيير الخارطة: اضغط على الأزرار الخضراء مع رمز الصليب الأسود للتكبير. على الزر الأخضر مع شرطة للتصغير، أو على الأسهم الخضراء للخرائط المجاورة.


METAR-TAF: